Time;durP1;ratioP1;P1;durP2;ratioP2;P2;SDS_P1;SDS_P2;PMS_P1;PMS_P2;Temp;Humidity;BMP_temperature;BMP_pressure;BME280_temperature;BME280_humidity;BME280_pressure;Samples;Min_cycle;Max_cycle;Signal;HPM_P1;HPM_P2
2022/03/31 00:00:45;;;;;;;13.48;6.15;;;7.80;99.90;;;;;;6335706;22;20027;-83
2022/03/31 00:03:17;;;;;;;13.02;6.90;;;7.80;99.90;;;;;;6335405;22;20152;-82
2022/03/31 00:05:43;;;;;;;14.52;6.65;;;7.80;99.90;;;;;;6307816;22;20341;-83
2022/03/31 00:08:13;;;;;;;14.40;6.68;;;7.80;99.90;;;;;;6308226;22;19998;-83
2022/03/31 00:10:41;;;;;;;14.88;6.97;;;7.80;99.90;;;;;;6308072;22;20003;-83
2022/03/31 00:13:10;;;;;;;12.98;6.22;;;7.80;99.90;;;;;;6334764;22;20007;-83
2022/03/31 00:15:37;;;;;;;11.50;5.53;;;7.80;99.90;;;;;;6335500;22;20003;-83
2022/03/31 00:18:04;;;;;;;13.38;6.25;;;7.80;99.90;;;;;;6335576;22;20003;-83
2022/03/31 00:20:32;;;;;;;11.15;5.82;;;7.70;99.90;;;;;;6309541;22;20490;-84
2022/03/31 00:22:58;;;;;;;12.15;5.93;;;7.70;99.90;;;;;;6337030;22;20003;-84
2022/03/31 00:25:24;;;;;;;11.68;5.75;;;7.70;99.90;;;;;;6309666;22;20034;-83
2022/03/31 00:27:50;;;;;;;11.63;6.05;;;7.70;99.90;;;;;;6309525;22;20026;-83
2022/03/31 00:30:16;;;;;;;13.20;6.00;;;7.70;99.90;;;;;;6308230;22;19998;-83
2022/03/31 00:32:42;;;;;;;11.18;6.07;;;7.70;99.90;;;;;;6308907;22;20041;-83
2022/03/31 00:35:10;;;;;;;11.90;5.40;;;7.60;99.90;;;;;;6336561;22;20003;-84
2022/03/31 00:37:36;;;;;;;11.07;5.55;;;7.70;99.90;;;;;;6336631;22;19999;-83
2022/03/31 00:40:02;;;;;;;13.27;5.88;;;7.70;99.90;;;;;;6308733;22;20007;-83
2022/03/31 00:42:28;;;;;;;10.48;5.95;;;7.70;99.90;;;;;;6309545;22;19995;-83
2022/03/31 00:44:53;;;;;;;12.60;6.22;;;7.60;99.90;;;;;;6308686;22;20109;-83
2022/03/31 00:47:19;;;;;;;13.20;5.85;;;7.50;99.90;;;;;;6336490;22;20006;-82
2022/03/31 00:49:45;;;;;;;11.63;5.30;;;7.60;99.90;;;;;;6309267;22;20074;-84
2022/03/31 00:52:12;;;;;;;12.50;5.82;;;7.50;99.90;;;;;;6336530;22;20006;-83
2022/03/31 00:54:39;;;;;;;14.20;5.75;;;7.60;99.90;;;;;;6305053;22;20005;-83
2022/03/31 00:57:10;;;;;;;13.40;6.05;;;7.50;99.90;;;;;;6335518;22;20007;-83
2022/03/31 00:59:36;;;;;;;14.32;6.10;;;7.50;99.90;;;;;;6308725;22;20460;-83
2022/03/31 01:02:03;;;;;;;14.02;6.18;;;7.50;99.90;;;;;;6336627;22;20341;-83
2022/03/31 01:04:30;;;;;;;11.98;5.60;;;7.50;99.90;;;;;;6308660;22;20337;-84
2022/03/31 01:06:56;;;;;;;12.25;6.00;;;7.50;99.90;;;;;;6308880;22;20154;-83
2022/03/31 01:09:22;;;;;;;14.07;6.57;;;7.60;99.90;;;;;;6336966;22;20337;-83
2022/03/31 01:11:48;;;;;;;14.50;6.50;;;7.50;99.90;;;;;;6308984;22;20003;-84
2022/03/31 01:14:15;;;;;;;13.60;6.28;;;7.50;99.90;;;;;;6307964;22;20441;-83
2022/03/31 01:16:41;;;;;;;14.13;6.47;;;7.60;99.90;;;;;;6336601;22;20003;-83
2022/03/31 01:19:08;;;;;;;11.75;6.70;;;7.60;99.90;;;;;;6308591;22;20040;-84
2022/03/31 01:21:38;;;;;;;13.43;5.57;;;7.60;99.90;;;;;;6308336;22;20048;-83
2022/03/31 01:24:08;;;;;;;12.38;6.25;;;7.60;99.90;;;;;;6335765;22;20382;-83
2022/03/31 01:26:35;;;;;;;15.10;6.38;;;7.60;99.90;;;;;;6336422;22;20002;-84
2022/03/31 01:29:01;;;;;;;13.30;6.25;;;7.60;99.90;;;;;;6308949;22;20472;-83
2022/03/31 01:31:26;;;;;;;13.18;5.63;;;7.50;99.90;;;;;;6307702;22;20455;-83
2022/03/31 01:33:53;;;;;;;11.60;6.40;;;7.50;99.90;;;;;;6335961;22;20022;-84
2022/03/31 01:36:19;;;;;;;12.23;5.07;;;7.40;99.90;;;;;;6308199;22;20026;-83
2022/03/31 01:38:46;;;;;;;12.98;5.55;;;7.40;99.90;;;;;;6306961;22;20072;-83
2022/03/31 01:41:12;;;;;;;11.23;5.35;;;7.40;99.90;;;;;;6308646;22;20030;-84
2022/03/31 01:43:37;;;;;;;12.07;4.85;;;7.30;99.90;;;;;;6308354;22;20006;-84
2022/03/31 01:46:03;;;;;;;11.55;5.80;;;7.30;99.90;;;;;;6309525;22;20433;-83
2022/03/31 01:48:29;;;;;;;10.65;5.15;;;7.30;99.90;;;;;;6337802;22;20014;-84
2022/03/31 01:50:55;;;;;;;8.02;4.35;;;7.20;99.90;;;;;;6336874;22;20005;-83
2022/03/31 01:53:21;;;;;;;10.85;5.40;;;7.20;99.90;;;;;;6308399;22;20007;-83
2022/03/31 01:55:46;;;;;;;10.23;4.35;;;7.20;99.90;;;;;;6303104;22;20007;-83
2022/03/31 01:58:12;;;;;;;9.45;4.68;;;7.00;99.90;;;;;;6336159;22;20725;-84
2022/03/31 02:00:38;;;;;;;10.77;4.28;;;7.00;99.90;;;;;;6330055;22;20013;-85
2022/03/31 02:03:04;;;;;;;9.15;4.47;;;6.90;99.90;;;;;;6346310;22;20012;-86
2022/03/31 02:05:29;;;;;;;10.48;5.03;;;6.90;99.90;;;;;;6375478;22;20001;-85
2022/03/31 02:07:56;;;;;;;10.48;4.78;;;6.90;99.90;;;;;;6347863;22;20003;-85
2022/03/31 02:10:25;;;;;;;13.77;5.40;;;6.80;99.90;;;;;;6376030;22;20002;-86
2022/03/31 02:12:51;;;;;;;11.87;4.60;;;6.80;99.90;;;;;;6344119;22;20388;-85
2022/03/31 02:15:16;;;;;;;10.73;5.00;;;6.80;99.90;;;;;;6343457;22;20003;-85
2022/03/31 02:17:42;;;;;;;10.15;5.15;;;6.80;99.90;;;;;;6314466;22;20003;-85
2022/03/31 02:20:09;;;;;;;9.07;4.67;;;6.70;99.90;;;;;;6316147;22;20094;-85
2022/03/31 02:22:34;;;;;;;10.17;4.70;;;6.70;99.90;;;;;;6315671;22;20009;-85
2022/03/31 02:25:03;;;;;;;11.40;5.20;;;6.70;99.90;;;;;;6314310;22;20331;-85
2022/03/31 02:27:29;;;;;;;10.77;4.93;;;6.70;99.90;;;;;;6315073;22;20022;-85
2022/03/31 02:29:54;;;;;;;12.17;4.83;;;6.60;99.90;;;;;;6314552;22;20437;-86
2022/03/31 02:32:20;;;;;;;10.93;5.23;;;6.70;99.90;;;;;;6313677;22;20101;-86
2022/03/31 02:34:46;;;;;;;10.37;5.00;;;6.70;99.90;;;;;;6312798;22;20013;-84
2022/03/31 02:37:11;;;;;;;11.87;4.60;;;6.70;99.90;;;;;;6312915;22;20034;-86
2022/03/31 02:39:39;;;;;;;9.82;5.15;;;6.70;99.90;;;;;;6307227;22;20437;-85
2022/03/31 02:42:05;;;;;;;10.07;4.80;;;6.70;99.90;;;;;;6309305;22;20063;-86
2022/03/31 02:44:31;;;;;;;10.43;5.00;;;6.80;99.90;;;;;;6314434;22;20368;-86
2022/03/31 02:46:57;;;;;;;10.70;5.07;;;6.80;99.90;;;;;;6343406;22;20310;-86
2022/03/31 02:49:22;;;;;;;12.77;5.50;;;6.80;99.90;;;;;;6314288;22;20009;-85
2022/03/31 02:51:48;;;;;;;10.20;5.13;;;6.90;99.90;;;;;;6314594;22;19998;-86
2022/03/31 02:56:58;;;;;;;10.90;4.87;;;6.80;99.90;;;;;;6342337;22;20386;-86
2022/03/31 02:59:24;;;;;;;10.77;4.93;;;6.90;99.90;;;;;;6344021;22;20077;-86
2022/03/31 03:01:49;;;;;;;11.40;5.30;;;7.00;99.90;;;;;;6316883;22;20595;-86
2022/03/31 03:04:15;;;;;;;9.65;4.55;;;6.90;99.90;;;;;;6317473;22;20005;-85
2022/03/31 03:06:41;;;;;;;10.43;5.25;;;6.90;99.90;;;;;;6312533;22;20007;-86
2022/03/31 03:09:07;;;;;;;11.50;5.57;;;6.90;99.90;;;;;;6317494;22;20345;-86
2022/03/31 03:11:33;;;;;;;11.23;4.88;;;6.90;99.90;;;;;;6343916;22;20001;-85
2022/03/31 03:13:59;;;;;;;11.02;5.47;;;6.80;99.90;;;;;;6343696;22;19995;-86
2022/03/31 03:16:25;;;;;;;12.23;5.43;;;6.70;99.90;;;;;;6343584;22;19999;-86
2022/03/31 03:18:52;;;;;;;12.15;4.88;;;6.80;99.90;;;;;;6343798;22;20024;-85
2022/03/31 03:21:19;;;;;;;13.17;5.77;;;6.80;99.90;;;;;;6317411;22;20033;-85
2022/03/31 03:23:46;;;;;;;10.60;5.17;;;6.70;99.90;;;;;;6345268;22;20005;-84
2022/03/31 03:26:12;;;;;;;10.18;5.05;;;6.70;99.90;;;;;;6344717;22;19995;-85
2022/03/31 03:28:37;;;;;;;12.47;5.50;;;6.60;99.90;;;;;;6344458;22;20014;-84
2022/03/31 03:31:06;;;;;;;11.97;5.43;;;6.50;99.90;;;;;;6345951;22;20002;-86
2022/03/31 03:33:32;;;;;;;12.00;6.07;;;6.50;99.90;;;;;;6343935;22;20003;-84
2022/03/31 03:36:02;;;;;;;12.60;6.13;;;6.50;99.90;;;;;;6317227;22;20014;-85
2022/03/31 03:38:28;;;;;;;13.50;5.43;;;6.40;99.90;;;;;;6316485;22;20048;-86
2022/03/31 03:40:54;;;;;;;13.10;5.90;;;6.30;99.90;;;;;;6345085;22;20044;-84
2022/03/31 03:43:20;;;;;;;13.00;6.20;;;6.30;99.90;;;;;;6317098;22;20009;-85
2022/03/31 03:45:46;;;;;;;12.97;6.03;;;6.30;99.90;;;;;;6317531;22;20087;-85
2022/03/31 03:48:12;;;;;;;11.80;5.60;;;6.30;99.90;;;;;;6349953;22;20345;-86
2022/03/31 03:50:38;;;;;;;13.50;5.73;;;6.10;99.90;;;;;;6321409;22;20448;-86
2022/03/31 03:53:08;;;;;;;13.20;6.00;;;6.10;99.90;;;;;;6320328;22;20060;-86
2022/03/31 03:55:38;;;;;;;13.70;6.23;;;6.00;99.90;;;;;;6322991;22;20003;-86
2022/03/31 03:58:04;;;;;;;13.30;5.83;;;6.00;99.90;;;;;;6349988;22;19999;-86
2022/03/31 04:00:30;;;;;;;13.50;6.07;;;6.00;99.90;;;;;;6320858;22;20188;-87
2022/03/31 04:02:56;;;;;;;12.97;5.87;;;6.00;99.90;;;;;;6320590;22;19999;-85
2022/03/31 04:05:22;;;;;;;12.23;6.00;;;6.00;99.90;;;;;;6348012;22;20006;-86
2022/03/31 04:07:48;;;;;;;12.20;6.30;;;6.00;99.90;;;;;;6317185;22;19999;-84
2022/03/31 04:10:15;;;;;;;12.93;6.03;;;6.00;99.90;;;;;;6321910;22;20085;-86
2022/03/31 04:12:42;;;;;;;13.80;6.70;;;5.90;99.90;;;;;;6361007;22;20052;-86
2022/03/31 04:15:08;;;;;;;11.57;6.37;;;6.00;99.90;;;;;;6364061;22;20034;-86
2022/03/31 04:17:35;;;;;;;14.37;6.73;;;5.90;99.90;;;;;;6328985;22;19999;-87
2022/03/31 04:20:02;;;;;;;12.87;5.87;;;6.00;99.90;;;;;;6352339;22;20014;-86
2022/03/31 04:22:28;;;;;;;12.03;5.93;;;6.00;99.90;;;;;;6351893;22;19995;-87
2022/03/31 04:24:54;;;;;;;15.37;6.97;;;6.00;99.90;;;;;;6349696;22;20019;-85
2022/03/31 04:27:19;;;;;;;10.73;5.70;;;5.90;99.90;;;;;;6323114;22;19999;-86
2022/03/31 04:29:50;;;;;;;12.07;5.57;;;5.90;99.90;;;;;;6321153;22;20060;-86
2022/03/31 04:32:18;;;;;;;12.43;5.80;;;5.90;99.90;;;;;;6353936;22;20010;-87
2022/03/31 04:34:44;;;;;;;13.00;6.03;;;5.90;99.90;;;;;;6354415;22;20003;-86
2022/03/31 04:37:10;;;;;;;15.70;6.33;;;5.90;99.90;;;;;;6326897;22;20183;-86
2022/03/31 04:39:35;;;;;;;12.87;6.87;;;5.80;99.90;;;;;;6323051;22;20007;-84
2022/03/31 04:42:02;;;;;;;14.97;6.43;;;5.90;99.90;;;;;;6350420;22;19998;-86
2022/03/31 04:44:28;;;;;;;12.90;5.77;;;5.80;99.90;;;;;;6350562;22;19995;-86
2022/03/31 04:46:54;;;;;;;12.53;5.97;;;5.90;99.90;;;;;;6350775;22;19999;-86
2022/03/31 04:49:20;;;;;;;14.23;6.83;;;5.80;99.90;;;;;;6350119;22;20491;-86
2022/03/31 04:51:45;;;;;;;13.00;6.30;;;5.90;99.90;;;;;;6322566;22;20024;-85
2022/03/31 04:54:11;;;;;;;12.43;5.93;;;5.90;99.90;;;;;;6348308;22;20022;-86
2022/03/31 04:56:39;;;;;;;12.90;6.17;;;5.90;99.90;;;;;;6350951;22;20018;-85
2022/03/31 04:59:05;;;;;;;12.33;6.63;;;5.80;99.90;;;;;;6324426;22;20007;-86
2022/03/31 05:01:30;;;;;;;12.97;6.10;;;6.00;99.90;;;;;;6345532;22;19999;-86
2022/03/31 05:04:00;;;;;;;11.17;6.13;;;5.90;99.90;;;;;;6352152;22;20413;-86
2022/03/31 05:06:27;;;;;;;14.87;7.10;;;5.80;99.90;;;;;;6320111;22;20003;-86
2022/03/31 05:08:52;;;;;;;12.10;6.70;;;5.80;99.90;;;;;;6323365;22;20060;-86
2022/03/31 05:11:19;;;;;;;14.37;6.57;;;5.80;99.90;;;;;;6319238;22;20007;-86
2022/03/31 05:13:45;;;;;;;12.07;6.53;;;5.70;99.90;;;;;;6316305;22;20003;-86
2022/03/31 05:16:11;;;;;;;15.67;6.17;;;5.80;99.90;;;;;;6316225;22;20380;-86
2022/03/31 05:18:36;;;;;;;13.07;6.53;;;5.70;99.90;;;;;;6340654;22;19999;-86
2022/03/31 05:21:05;;;;;;;15.73;7.20;;;5.80;99.90;;;;;;6340695;22;19998;-87
2022/03/31 05:23:33;;;;;;;14.57;6.43;;;5.70;99.90;;;;;;6344825;22;20002;-86
2022/03/31 05:25:59;;;;;;;12.73;6.60;;;5.70;99.90;;;;;;6345985;22;20051;-86
2022/03/31 05:28:31;;;;;;;13.17;5.93;;;5.70;99.90;;;;;;6348211;22;20025;-86
2022/03/31 05:31:21;;;;;;;12.85;6.82;;;5.70;99.90;;;;;;6326346;22;19998;-85
2022/03/31 05:33:52;;;;;;;13.87;6.30;;;5.70;99.90;;;;;;6354880;22;20002;-85
2022/03/31 05:36:21;;;;;;;15.95;7.28;;;5.90;99.90;;;;;;6352425;22;20009;-86
2022/03/31 05:41:58;;;;;;;13.77;6.50;;;5.90;99.90;;;;;;6358042;22;20018;-89
2022/03/31 05:44:27;;;;;;;11.00;5.77;;;6.00;99.90;;;;;;6327419;22;20003;-89
2022/03/31 05:46:53;;;;;;;11.07;6.30;;;5.90;99.90;;;;;;6323514;22;20007;-89
2022/03/31 05:49:29;;;;;;;10.63;5.93;;;5.90;99.90;;;;;;6321782;22;20211;-90
2022/03/31 05:51:54;;;;;;;12.73;6.23;;;5.90;99.90;;;;;;6324370;22;20006;-89
2022/03/31 05:54:20;;;;;;;14.57;6.60;;;5.80;99.90;;;;;;6324385;22;20030;-88
2022/03/31 05:56:49;;;;;;;12.10;6.50;;;5.80;99.90;;;;;;6325262;22;20003;-87
2022/03/31 05:59:15;;;;;;;16.00;7.27;;;5.90;99.90;;;;;;6321752;22;20437;-87
2022/03/31 06:01:44;;;;;;;13.87;7.10;;;5.90;99.90;;;;;;6318444;22;20007;-87
2022/03/31 06:04:10;;;;;;;12.97;6.60;;;5.90;99.90;;;;;;6348272;22;19995;-88
2022/03/31 06:06:42;;;;;;;14.13;6.43;;;5.90;99.90;;;;;;6347059;22;19998;-87
2022/03/31 06:09:08;;;;;;;13.57;6.90;;;5.90;99.90;;;;;;6349914;22;20064;-87
2022/03/31 06:11:33;;;;;;;12.60;6.30;;;5.90;99.90;;;;;;6322633;22;20320;-87
2022/03/31 06:14:00;;;;;;;14.20;6.40;;;5.90;99.90;;;;;;6320980;22;20015;-88
2022/03/31 06:16:26;;;;;;;12.07;6.37;;;6.00;99.90;;;;;;6322385;22;20060;-87
2022/03/31 06:18:57;;;;;;;14.40;6.63;;;6.00;99.90;;;;;;6347763;22;19995;-87
2022/03/31 06:21:23;;;;;;;14.60;6.07;;;5.90;99.90;;;;;;6319709;22;20077;-87
2022/03/31 06:23:50;;;;;;;11.17;6.10;;;5.90;99.90;;;;;;6318447;22;20333;-87
2022/03/31 06:26:19;;;;;;;14.10;6.27;;;5.90;99.90;;;;;;6318989;22;20002;-89
2022/03/31 06:28:45;;;;;;;13.73;6.93;;;5.90;99.90;;;;;;6324082;22;20021;-89
2022/03/31 06:31:17;;;;;;;11.47;6.50;;;5.90;99.90;;;;;;6326867;22;20472;-89
2022/03/31 06:33:43;;;;;;;;;;;5.90;99.90;;;;;;6327979;22;20006;-89
2022/03/31 06:36:12;;;;;;;13.00;6.80;;;5.90;99.90;;;;;;6327036;22;19951;-87
2022/03/31 06:38:38;;;;;;;13.60;6.33;;;6.00;99.90;;;;;;6318537;22;20014;-87
2022/03/31 06:41:06;;;;;;;12.13;6.07;;;5.90;99.90;;;;;;6321031;22;20003;-87
2022/03/31 06:43:40;;;;;;;12.10;6.17;;;5.80;99.90;;;;;;6321555;22;20010;-87
2022/03/31 06:46:14;;;;;;;15.90;6.93;;;5.80;99.90;;;;;;6348905;22;19995;-87
2022/03/31 06:48:42;;;;;;;12.93;6.70;;;5.90;99.90;;;;;;6315481;22;19998;-86
2022/03/31 06:51:09;;;;;;;15.70;6.73;;;5.80;99.90;;;;;;6324684;22;20038;-86
2022/03/31 06:53:37;;;;;;;12.10;5.97;;;6.00;99.90;;;;;;6347219;22;20032;-86
2022/03/31 06:56:18;;;;;;;12.47;6.43;;;5.90;99.90;;;;;;6324760;22;20003;-86
2022/03/31 06:58:45;;;;;;;13.43;6.43;;;5.90;99.90;;;;;;6325157;22;20014;-86
2022/03/31 07:01:14;;;;;;;12.27;6.13;;;6.10;99.90;;;;;;6351364;22;20002;-87
2022/03/31 07:03:40;;;;;;;10.77;6.17;;;6.00;99.90;;;;;;6324095;22;20003;-86
2022/03/31 07:06:08;;;;;;;14.53;5.93;;;5.90;99.90;;;;;;6325042;22;19998;-87
2022/03/31 07:08:35;;;;;;;13.73;6.13;;;6.10;99.90;;;;;;6352994;22;19995;-86
2022/03/31 07:11:04;;;;;;;13.43;6.47;;;6.10;99.90;;;;;;6352256;22;20017;-87
2022/03/31 07:13:35;;;;;;;13.77;6.47;;;6.10;99.90;;;;;;6352619;22;20487;-87
2022/03/31 07:16:02;;;;;;;12.17;6.33;;;6.20;99.90;;;;;;6324754;22;19999;-87
2022/03/31 07:18:28;;;;;;;13.40;6.77;;;6.30;99.90;;;;;;6325887;22;20002;-86
2022/03/31 07:20:57;;;;;;;12.57;6.37;;;6.40;99.90;;;;;;6324943;22;20007;-87
2022/03/31 07:23:27;;;;;;;12.90;6.83;;;6.50;99.90;;;;;;6349997;22;20024;-87
2022/03/31 07:25:54;;;;;;;14.30;6.97;;;6.70;99.90;;;;;;6322208;22;20020;-86
2022/03/31 07:28:24;;;;;;;15.30;7.07;;;6.70;99.90;;;;;;6346173;22;19999;-86
2022/03/31 07:30:50;;;;;;;13.23;6.57;;;6.70;99.90;;;;;;6316053;22;20003;-86
2022/03/31 07:33:19;;;;;;;15.83;6.80;;;6.70;99.90;;;;;;6342289;22;19995;-86
2022/03/31 07:35:47;;;;;;;14.93;6.87;;;6.50;99.90;;;;;;6314750;22;20028;-87
2022/03/31 07:38:13;;;;;;;12.57;6.47;;;6.50;99.90;;;;;;6345212;22;20026;-86
2022/03/31 07:40:43;;;;;;;14.70;6.47;;;6.60;99.90;;;;;;6344680;22;20056;-86
2022/03/31 07:43:14;;;;;;;11.77;6.00;;;6.70;99.90;;;;;;6317573;22;20033;-86
2022/03/31 07:45:40;;;;;;;13.27;6.90;;;6.70;99.90;;;;;;6316531;22;19998;-86
2022/03/31 07:48:17;;;;;;;13.27;7.17;;;6.80;99.90;;;;;;6348556;22;20006;-86
2022/03/31 07:50:56;;;;;;;12.27;6.23;;;6.80;99.90;;;;;;6321368;22;19999;-86
2022/03/31 07:53:32;;;;;;;;;;;;;;;;;;;;;
2022/03/31 07:56:18;;;;;;;13.27;6.37;;;6.90;99.90;;;;;;6351243;22;20034;-86
2022/03/31 07:58:44;;;;;;;15.40;6.93;;;6.80;99.90;;;;;;6323515;22;20273;-86
2022/03/31 08:01:11;;;;;;;10.40;5.73;;;6.80;99.90;;;;;;6323002;22;20014;-86
2022/03/31 08:03:40;;;;;;;11.93;6.57;;;6.80;99.90;;;;;;6322621;22;20026;-87
2022/03/31 08:06:08;;;;;;;13.70;6.40;;;6.80;99.90;;;;;;6323941;22;20005;-87
2022/03/31 08:08:34;;;;;;;14.30;6.80;;;6.80;99.90;;;;;;6323422;22;20062;-88
2022/03/31 08:11:29;;;;;;;14.67;6.73;;;6.80;99.90;;;;;;6323679;22;20502;-88
2022/03/31 08:14:06;;;;;;;13.63;6.27;;;6.80;99.90;;;;;;6322523;22;20007;-88
2022/03/31 08:16:32;;;;;;;14.53;7.43;;;6.80;99.90;;;;;;6324463;22;20070;-89
2022/03/31 08:19:02;;;;;;;12.23;6.07;;;6.80;99.90;;;;;;6324666;22;20013;-87
2022/03/31 08:21:34;;;;;;;14.50;7.63;;;6.80;99.90;;;;;;6351066;22;20018;-87
2022/03/31 08:24:34;;;;;;;13.82;6.70;;;6.80;99.90;;;;;;6322531;22;19999;-87
2022/03/31 08:27:03;;;;;;;13.20;6.80;;;6.70;99.90;;;;;;6351513;22;19998;-87
2022/03/31 08:29:33;;;;;;;15.03;6.67;;;6.80;99.90;;;;;;6324378;22;20010;-87
2022/03/31 08:32:04;;;;;;;11.70;6.77;;;6.80;99.90;;;;;;6346780;22;20025;-86
2022/03/31 08:34:40;;;;;;;12.67;6.40;;;6.80;99.90;;;;;;6320036;22;20056;-87
2022/03/31 08:37:30;;;;;;;16.03;6.90;;;6.90;99.90;;;;;;6320504;22;20024;-88
2022/03/31 08:40:27;;;;;;;15.37;7.17;;;7.00;99.90;;;;;;6311070;22;20003;-87
2022/03/31 08:43:00;;;;;;;14.03;6.77;;;7.10;99.90;;;;;;6325971;22;20033;-88
2022/03/31 08:45:28;;;;;;;12.63;6.60;;;7.10;99.90;;;;;;6350437;22;20005;-87
2022/03/31 08:48:03;;;;;;;12.60;6.37;;;7.30;99.90;;;;;;6319911;22;20714;-87
2022/03/31 08:50:30;;;;;;;12.60;6.60;;;7.30;99.90;;;;;;6322919;22;20002;-87
2022/03/31 08:52:56;;;;;;;16.30;7.10;;;7.50;99.90;;;;;;6323723;22;20002;-87
2022/03/31 08:55:22;;;;;;;14.50;7.20;;;7.40;99.90;;;;;;6351760;22;20050;-87
2022/03/31 08:57:54;;;;;;;16.00;8.13;;;7.40;99.90;;;;;;6321598;22;20102;-87
2022/03/31 09:00:33;;;;;;;15.13;7.32;;;7.40;99.90;;;;;;6321504;22;20010;-88
2022/03/31 09:03:19;;;;;;;15.63;6.17;;;7.50;99.90;;;;;;6349774;22;20003;-87
2022/03/31 09:05:53;;;;;;;12.93;6.37;;;7.40;99.90;;;;;;6349586;22;20002;-88
2022/03/31 09:08:29;;;;;;;13.13;6.65;;;7.60;99.90;;;;;;6321977;22;20045;-87
2022/03/31 09:11:00;;;;;;;14.87;7.43;;;7.80;99.90;;;;;;6322459;22;20016;-87
2022/03/31 09:13:40;;;;;;;15.20;7.40;;;7.90;99.90;;;;;;6351976;22;20034;-88
2022/03/31 09:16:11;;;;;;;13.80;7.07;;;7.90;99.90;;;;;;6355079;22;19999;-87
2022/03/31 09:19:13;;;;;;;16.05;7.03;;;8.10;99.90;;;;;;6325823;22;20022;-88
2022/03/31 09:21:58;;;;;;;14.80;6.70;;;8.10;99.90;;;;;;6349233;22;20066;-87
2022/03/31 09:24:27;;;;;;;18.63;6.53;;;8.30;99.90;;;;;;6321304;22;20011;-87
2022/03/31 09:26:58;;;;;;;14.65;7.00;;;8.40;99.90;;;;;;6348309;22;19999;-87
2022/03/31 09:29:27;;;;;;;14.35;7.03;;;8.50;99.90;;;;;;6319573;22;20003;-87
2022/03/31 09:32:07;;;;;;;14.45;6.95;;;8.50;99.90;;;;;;6321506;22;19998;-87
2022/03/31 09:34:46;;;;;;;12.00;6.88;;;8.50;99.90;;;;;;6322202;22;20010;-88
2022/03/31 09:37:15;;;;;;;14.88;7.38;;;8.50;99.90;;;;;;6324329;22;20062;-88
2022/03/31 09:39:55;;;;;;;13.35;7.25;;;8.60;99.90;;;;;;6324149;22;20345;-87
2022/03/31 09:42:24;;;;;;;14.45;6.70;;;8.50;99.90;;;;;;6323446;22;20075;-88
2022/03/31 09:45:03;;;;;;;16.27;7.63;;;8.60;99.90;;;;;;6322306;22;19999;-87
2022/03/31 09:47:32;;;;;;;13.20;6.78;;;8.70;99.90;;;;;;6322380;22;20048;-88
2022/03/31 09:50:03;;;;;;;15.35;7.78;;;8.80;99.90;;;;;;6350613;22;20058;-88
2022/03/31 09:52:42;;;;;;;13.93;6.85;;;8.90;99.90;;;;;;6350567;22;20019;-88
2022/03/31 09:55:12;;;;;;;16.33;7.55;;;8.80;99.90;;;;;;6323436;22;20018;-87
2022/03/31 09:57:39;;;;;;;13.13;6.55;;;8.90;99.90;;;;;;6322734;22;19998;-88
2022/03/31 10:00:12;;;;;;;12.65;7.13;;;9.00;99.90;;;;;;6349244;22;20030;-88
2022/03/31 10:02:38;;;;;;;;;;;9.00;99.90;;;;;;6349962;22;20006;-87
2022/03/31 10:05:04;;;;;;;14.25;6.75;;;9.10;99.90;;;;;;6342204;22;19909;-88
2022/03/31 10:07:30;;;;;;;11.35;6.45;;;9.20;99.90;;;;;;6354659;22;19995;-88
2022/03/31 10:09:56;;;;;;;13.52;6.32;;;9.30;99.90;;;;;;6320388;22;20060;-87
2022/03/31 10:12:36;;;;;;;12.77;6.43;;;9.50;99.90;;;;;;6344228;22;20084;-88
2022/03/31 10:15:28;;;;;;;14.88;7.20;;;9.40;99.90;;;;;;6328992;22;20333;-88
2022/03/31 10:17:57;;;;;;;15.52;7.32;;;9.60;99.90;;;;;;6322651;22;20090;-88
2022/03/31 10:20:23;;;;;;;12.35;6.63;;;9.60;99.90;;;;;;6352991;22;20007;-88
2022/03/31 10:25:54;;;;;;;12.98;6.03;;;10.00;99.90;;;;;;6348522;22;20009;-88
2022/03/31 10:28:22;;;;;;;17.70;7.78;;;10.10;99.90;;;;;;6352757;22;20025;-87
2022/03/31 10:31:09;;;;;;;12.45;6.15;;;10.20;99.90;;;;;;6323298;22;20003;-88
2022/03/31 10:33:42;;;;;;;12.05;6.53;;;10.30;99.90;;;;;;6336258;22;20013;-88
2022/03/31 10:36:19;;;;;;;15.38;6.50;;;10.40;99.90;;;;;;6336360;22;20002;-87
2022/03/31 10:38:52;;;;;;;16.83;7.25;;;10.30;99.90;;;;;;6328648;22;20006;-88
2022/03/31 10:41:18;;;;;;;15.13;7.05;;;10.40;99.90;;;;;;6346017;22;20013;-88
2022/03/31 10:43:48;;;;;;;12.43;6.38;;;10.40;99.90;;;;;;6319204;22;20467;-88
2022/03/31 10:46:18;;;;;;;13.90;6.53;;;10.40;99.90;;;;;;6346930;22;19999;-89
2022/03/31 10:48:50;;;;;;;12.82;7.30;;;10.50;99.90;;;;;;6318689;22;20089;-88
2022/03/31 10:51:16;;;;;;;13.98;6.75;;;10.40;99.90;;;;;;6346533;22;20002;-88
2022/03/31 10:53:48;;;;;;;11.85;6.00;;;10.50;99.90;;;;;;6345811;22;19999;-88
2022/03/31 10:56:32;;;;;;;;;;;10.40;99.90;;;;;;6319710;22;20030;-89
2022/03/31 10:59:00;;;;;;;11.70;6.05;;;10.40;99.90;;;;;;6342816;22;20000;-89
2022/03/31 11:01:31;;;;;;;13.07;6.20;;;10.40;99.90;;;;;;6343082;22;20003;-88
2022/03/31 11:04:12;;;;;;;11.70;5.60;;;10.40;99.90;;;;;;6343459;22;20337;-89
2022/03/31 11:06:53;;;;;;;12.85;6.68;;;10.40;99.90;;;;;;6317843;22;20003;-88
2022/03/31 11:09:26;;;;;;;13.43;6.07;;;10.20;99.90;;;;;;6344540;22;20002;-88
2022/03/31 11:11:53;;;;;;;13.07;6.38;;;10.20;99.90;;;;;;6314567;22;20010;-89
2022/03/31 11:14:20;;;;;;;14.05;6.45;;;10.20;99.90;;;;;;6316927;22;20002;-88
2022/03/31 11:16:46;;;;;;;15.18;7.25;;;10.30;99.90;;;;;;6317347;22;19998;-89
2022/03/31 11:19:13;;;;;;;11.20;6.15;;;10.30;99.90;;;;;;6344333;22;20429;-88
2022/03/31 11:21:42;;;;;;;14.77;6.70;;;10.50;99.90;;;;;;6317083;22;20010;-89
2022/03/31 11:24:10;;;;;;;14.18;6.60;;;10.40;99.90;;;;;;6344460;22;19999;-88
2022/03/31 11:26:44;;;;;;;14.25;7.15;;;10.60;99.90;;;;;;6317042;22;20013;-88
2022/03/31 11:29:18;;;;;;;13.27;6.55;;;10.80;99.90;;;;;;6345669;22;20009;-87
2022/03/31 11:31:47;;;;;;;13.20;6.57;;;10.80;99.90;;;;;;6317612;22;20081;-89
2022/03/31 11:34:21;;;;;;;11.88;6.13;;;10.70;99.90;;;;;;6344822;22;20007;-88
2022/03/31 11:36:47;;;;;;;11.32;6.18;;;10.70;99.90;;;;;;6346479;22;20010;-88
2022/03/31 11:39:13;;;;;;;14.18;6.80;;;10.60;99.90;;;;;;6345774;22;20402;-88
2022/03/31 11:41:42;;;;;;;12.25;6.20;;;10.60;99.90;;;;;;6316222;22;20013;-88
2022/03/31 11:44:08;;;;;;;14.93;6.63;;;10.40;99.90;;;;;;6349321;22;20003;-89
2022/03/31 11:46:49;;;;;;;14.98;6.15;;;10.40;99.90;;;;;;6353984;22;19999;-89
2022/03/31 11:49:20;;;;;;;13.68;6.10;;;10.40;99.90;;;;;;6352147;22;20030;-89
2022/03/31 11:51:58;;;;;;;10.77;6.03;;;10.60;99.90;;;;;;6328235;22;20003;-89
2022/03/31 11:54:26;;;;;;;11.45;6.00;;;10.60;99.90;;;;;;6351224;22;19999;-90
2022/03/31 11:57:07;;;;;;;10.88;5.32;;;10.60;99.90;;;;;;6352781;22;19999;-89
2022/03/31 11:59:37;;;;;;;10.18;5.75;;;10.50;99.90;;;;;;6343120;22;20131;-87
2022/03/31 12:02:21;;;;;;;13.63;6.40;;;10.60;99.90;;;;;;6340160;22;20048;-87
2022/03/31 12:04:48;;;;;;;14.50;6.15;;;10.70;99.90;;;;;;6310522;22;20476;-87
2022/03/31 12:07:16;;;;;;;12.02;6.30;;;10.80;99.90;;;;;;6338092;22;19995;-87
2022/03/31 12:09:46;;;;;;;13.23;6.13;;;10.90;99.90;;;;;;6311332;22;20090;-87
2022/03/31 12:12:15;;;;;;;13.18;6.35;;;11.00;99.90;;;;;;6310899;22;20453;-87
2022/03/31 12:14:56;;;;;;;11.57;6.50;;;11.00;99.90;;;;;;6339146;22;20447;-87
2022/03/31 12:17:29;;;;;;;13.02;6.75;;;11.20;99.90;;;;;;6312746;22;20082;-87
2022/03/31 12:19:58;;;;;;;12.73;6.22;;;11.10;99.90;;;;;;6311578;22;20033;-87
2022/03/31 12:22:32;;;;;;;12.93;6.90;;;11.20;99.90;;;;;;6340912;22;20001;-86
2022/03/31 12:25:01;;;;;;;12.93;6.72;;;11.40;99.90;;;;;;6311270;22;20068;-86
2022/03/31 12:27:27;;;;;;;12.60;6.50;;;11.20;99.90;;;;;;6313034;22;20035;-86
2022/03/31 12:29:58;;;;;;;14.05;6.65;;;11.10;99.90;;;;;;6313722;22;20010;-86
2022/03/31 12:32:24;;;;;;;14.07;6.70;;;11.10;99.90;;;;;;6314243;22;20017;-86
2022/03/31 12:35:01;;;;;;;13.63;6.25;;;10.90;99.90;;;;;;6318805;22;20054;-86
2022/03/31 12:37:36;;;;;;;13.15;6.35;;;10.80;99.90;;;;;;6343945;22;20336;-86
2022/03/31 12:40:09;;;;;;;13.07;6.82;;;10.80;99.90;;;;;;6339542;22;20006;-87
2022/03/31 12:42:38;;;;;;;13.90;6.70;;;10.80;99.90;;;;;;6311762;22;20010;-87
2022/03/31 12:45:17;;;;;;;11.35;5.85;;;10.80;99.90;;;;;;6310812;22;20500;-86
2022/03/31 12:47:47;;;;;;;12.35;6.07;;;10.80;99.90;;;;;;6337320;22;20010;-86
2022/03/31 12:50:40;;;;;;;12.65;5.88;;;10.90;99.90;;;;;;6338179;22;19999;-86
2022/03/31 12:53:15;;;;;;;11.10;5.95;;;10.80;99.90;;;;;;6306020;22;20035;-86
2022/03/31 12:55:41;;;;;;;13.48;6.68;;;10.80;99.90;;;;;;6312046;22;20087;-86
2022/03/31 12:58:11;;;;;;;12.15;6.53;;;10.70;99.90;;;;;;6340178;22;20007;-86
2022/03/31 13:00:37;;;;;;;12.10;6.60;;;10.80;99.90;;;;;;6312646;22;20022;-86
2022/03/31 13:03:03;;;;;;;13.30;6.68;;;10.70;99.90;;;;;;6313565;22;20447;-86
2022/03/31 13:05:33;;;;;;;13.32;6.45;;;10.70;99.90;;;;;;6314074;22;20003;-86
2022/03/31 13:08:01;;;;;;;13.35;7.25;;;10.70;99.90;;;;;;6342367;22;20021;-86